Garrard, Kentucky
Current Conditions -  °F | °C
As of 5:53 AM on Friday 28 Nov 2014 (Local Time) from KLOZ Reporting Station
Broken Clouds Broken Clouds  
Wind Chill: 19°   Ceiling: 3000
Heat Index: 25°   Visibility: 10mi
Dew Point: 16°   Wind: 5mph
Humidity: 69%   Direction: 270°W
Pressure: 30.39"   Gusts: NA
Location:  37.12°N, 83.75°W
Report Text: KLOZ 281053Z AUTO 27004KT 10SM BKN030 M04/M09 A3039 RMK AO2 SLP303 T10391089
Loading
Personal Weather Stations






























Interactive Weather Map New forecast layout! Learn more

10-Day Weather Forecast

Advertisements
Track Severe Weather on mobile